ジャカルタ の空港の天気 - METARとTAF

スカルノハッタ国際空港 ( WIII / CGK ) - インドネシア バンテン州、Cengkareng ( ジャカルタ近郊)
飛行場実況気象(Metar)
観測時間11/27 15:00 WIB (11/27 08:00 UTC)
風向・風速北 3m/s
視程9000m
天気現象
全天の4割程度の雲 雲底高度 610m
気温31℃
湿度66%
気圧1006hPa
METARWIII 270800Z 01006KT 9000 SCT020 31/24 Q1006 NOSIG
過去の天気等 Google飛行場航空写真 Wunderground天気予報

過去48時間のMETAR

飛行場予報(TAF)
発表時間: 11/27 12:00 WIB (11/27 05:00 UTC)
予報対象時間: 27日13時 WIB ~ 28日19時 WIB
風向・風速西 5m/s
視程9000m
全天の4割程度の雲 雲底高度 610m
27日13時 WIB ~ 27日17時 WIB に一時的に
視程5000m
天気現象弱い雷雨
少しの積乱雲 雲底高度 550m
27日19時 WIB ~ 27日21時 WIB に徐々に
視程5000m
天気現象煙霧
TAF WIII 270500Z 2706/2812 27010KT 9000 SCT020
TEMPO 2706/2710 5000 -TSRA FEW018CB
BECMG 2712/2714 5000 HZ